Time;durP1;ratioP1;P1;durP2;ratioP2;P2;SDS_P1;SDS_P2;PMS_P1;PMS_P2;Temp;Humidity;BMP_temperature;BMP_pressure;BME280_temperature;BME280_humidity;BME280_pressure;Samples;Min_cycle;Max_cycle;Signal;HPM_P1;HPM_P2
2022/01/19 00:00:41;;;;;;;1999.90;999.90;;;4.80;99.90;;;;;;5068842;28;20055;-68
2022/01/19 00:03:07;;;;;;;1999.90;999.90;;;4.80;99.90;;;;;;5068037;28;20067;-68
2022/01/19 00:05:32;;;;;;;1999.90;999.90;;;4.80;99.90;;;;;;5068366;28;20497;-68
2022/01/19 00:07:58;;;;;;;1999.90;999.90;;;4.80;99.90;;;;;;5069648;28;20105;-68
2022/01/19 00:10:28;;;;;;;1999.90;999.90;;;4.80;99.90;;;;;;5062892;28;20056;-68
2022/01/19 00:12:57;;;;;;;1999.90;999.90;;;4.80;99.90;;;;;;5069402;28;20120;-69
2022/01/19 00:15:25;;;;;;;1999.90;999.90;;;4.80;99.90;;;;;;5066693;28;20064;-68
2022/01/19 00:17:59;;;;;;;1999.90;999.90;;;4.80;99.90;;;;;;5064365;28;20060;-69
2022/01/19 00:20:27;;;;;;;1999.90;999.90;;;4.80;99.90;;;;;;5070100;28;20052;-68
2022/01/19 00:22:53;;;;;;;1999.90;999.90;;;4.80;99.90;;;;;;5064576;28;20053;-68
2022/01/19 00:25:20;;;;;;;1999.90;999.90;;;4.80;99.90;;;;;;5061933;28;20055;-68
2022/01/19 00:27:45;;;;;;;1999.90;999.90;;;4.90;99.90;;;;;;5060394;28;20040;-68
2022/01/19 00:30:11;;;;;;;1999.90;999.90;;;4.80;99.90;;;;;;5054686;28;20043;-68
2022/01/19 00:32:37;;;;;;;1999.90;999.90;;;4.80;99.90;;;;;;5069263;28;20044;-68
2022/01/19 00:35:05;;;;;;;1999.90;999.90;;;4.90;99.90;;;;;;5063718;28;20083;-68
2022/01/19 00:37:31;;;;;;;1999.90;999.90;;;4.80;99.90;;;;;;5066056;28;20074;-68
2022/01/19 00:39:56;;;;;;;1999.90;999.90;;;4.80;99.90;;;;;;5062613;28;20036;-68
2022/01/19 00:42:22;;;;;;;1999.90;999.90;;;4.80;99.90;;;;;;5067854;28;20060;-68
2022/01/19 00:44:48;;;;;;;1999.90;999.90;;;4.80;99.90;;;;;;5065638;28;20841;-68
2022/01/19 00:47:14;;;;;;;1999.90;999.90;;;4.80;99.90;;;;;;5054305;28;20094;-68
2022/01/19 00:49:42;;;;;;;1999.90;999.90;;;4.80;99.90;;;;;;5068761;28;20053;-69
2022/01/19 00:52:09;;;;;;;1999.90;999.90;;;4.70;99.90;;;;;;5068344;28;20067;-68
2022/01/19 00:54:35;;;;;;;1999.90;999.90;;;4.70;99.90;;;;;;5061723;28;20089;-68
2022/01/19 00:57:00;;;;;;;1999.90;999.90;;;4.70;99.90;;;;;;5058472;28;20079;-68
2022/01/19 00:59:26;;;;;;;1999.90;999.90;;;4.80;99.90;;;;;;5066372;28;20597;-69
2022/01/19 01:01:52;;;;;;;1999.90;999.90;;;4.80;99.90;;;;;;5068267;28;20083;-68
2022/01/19 01:04:18;;;;;;;1999.90;999.90;;;4.80;99.90;;;;;;5059887;28;20450;-68
2022/01/19 01:06:43;;;;;;;1999.90;999.90;;;4.80;99.90;;;;;;5067660;28;20056;-68
2022/01/19 01:09:09;;;;;;;1999.90;999.90;;;4.80;99.90;;;;;;5063336;28;20157;-68
2022/01/19 01:11:37;;;;;;;1999.90;999.90;;;4.80;99.90;;;;;;5067853;28;20440;-68
2022/01/19 01:16:34;;;;;;;1999.90;999.90;;;4.90;99.90;;;;;;5062950;28;20114;-68
2022/01/19 01:19:00;;;;;;;1999.90;999.90;;;4.80;99.90;;;;;;5064869;28;20079;-68
2022/01/19 01:21:26;;;;;;;1999.90;999.90;;;4.80;99.90;;;;;;5055141;28;20457;-68
2022/01/19 01:23:59;;;;;;;1999.90;999.90;;;4.80;99.90;;;;;;5067946;28;20082;-68
2022/01/19 01:26:25;;;;;;;1999.90;999.90;;;4.80;99.90;;;;;;5056937;28;20637;-68
2022/01/19 01:28:51;;;;;;;1999.90;999.90;;;4.70;99.90;;;;;;5067246;28;20098;-68
2022/01/19 01:31:17;;;;;;;1999.90;999.90;;;4.70;99.90;;;;;;5062690;28;20086;-69
2022/01/19 01:33:43;;;;;;;1999.90;999.90;;;4.60;99.90;;;;;;5065283;28;20126;-68
2022/01/19 01:36:09;;;;;;;275.90;130.52;;;4.40;99.90;;;;;;5065898;28;20131;-68
2022/01/19 01:38:37;;;;;;;133.20;55.70;;;4.30;99.90;;;;;;5065662;28;20045;-68
2022/01/19 01:41:04;;;;;;;1999.90;999.90;;;4.20;99.90;;;;;;5063450;28;20047;-69
2022/01/19 01:43:30;;;;;;;1999.90;999.90;;;4.10;99.90;;;;;;5059433;28;20056;-68
2022/01/19 01:46:02;;;;;;;1999.90;999.90;;;4.00;99.90;;;;;;5064666;28;20055;-68
2022/01/19 01:48:28;;;;;;;1999.90;999.90;;;3.90;99.90;;;;;;5066457;28;20044;-68
2022/01/19 01:53:38;;;;;;;1999.90;999.90;;;3.70;99.90;;;;;;5065776;28;20052;-68
2022/01/19 01:56:11;;;;;;;1999.90;999.90;;;3.60;99.90;;;;;;5064447;28;20040;-68
2022/01/19 01:58:41;;;;;;;1999.90;999.90;;;3.50;99.90;;;;;;5063345;28;20045;-68
2022/01/19 02:01:08;;;;;;;1999.90;999.90;;;3.50;99.90;;;;;;5060482;28;20043;-68
2022/01/19 02:03:39;;;;;;;1999.90;999.90;;;3.40;99.90;;;;;;5060819;28;20056;-68
2022/01/19 02:09:12;;;;;;;1999.90;999.90;;;3.20;99.90;;;;;;5054740;28;20098;-68
2022/01/19 02:23:33;;;;;;;1999.90;999.90;;;3.10;99.90;;;;;;5065771;28;20117;-68
2022/01/19 02:26:02;;;;;;;1999.90;999.90;;;3.20;99.90;;;;;;5057078;28;20059;-68
2022/01/19 02:41:59;;;;;;;1999.90;951.08;;;3.80;99.90;;;;;;5054934;28;20052;-68
2022/01/19 02:49:52;;;;;;;1999.90;999.90;;;3.90;99.90;;;;;;5068113;28;20056;-68
2022/01/19 02:52:21;;;;;;;1999.90;999.90;;;3.90;99.90;;;;;;5064732;28;20048;-68
2022/01/19 02:54:46;;;;;;;;;;;4.00;99.90;;;;;;5065535;28;20040;-68
2022/01/19 02:57:14;;;;;;;1999.90;999.90;;;4.00;99.90;;;;;;5063341;28;19927;-68
2022/01/19 03:10:27;;;;;;;1999.90;999.90;;;4.10;99.90;;;;;;5065975;28;20058;-68
2022/01/19 03:12:52;;;;;;;1999.90;999.90;;;4.10;99.90;;;;;;5059999;28;20436;-69
2022/01/19 03:15:19;;;;;;;1999.90;999.90;;;4.10;99.90;;;;;;5060943;28;20055;-68
2022/01/19 03:17:44;;;;;;;1999.90;999.90;;;4.10;99.90;;;;;;5059305;28;20044;-68
2022/01/19 03:20:12;;;;;;;1999.90;999.90;;;4.10;99.90;;;;;;5058627;28;20529;-68
2022/01/19 03:22:45;;;;;;;1999.90;999.90;;;4.10;99.90;;;;;;5066164;28;20044;-68
2022/01/19 03:25:12;;;;;;;1999.90;999.90;;;4.10;99.90;;;;;;5062494;28;20120;-68
2022/01/19 03:27:40;;;;;;;1999.90;999.90;;;4.10;99.90;;;;;;5060764;28;20057;-68
2022/01/19 03:30:07;;;;;;;1999.90;999.90;;;4.10;99.90;;;;;;5057778;28;20049;-68
2022/01/19 03:32:32;;;;;;;1999.90;999.90;;;4.10;99.90;;;;;;5070839;28;20041;-68
2022/01/19 03:34:59;;;;;;;1131.22;441.70;;;4.10;99.90;;;;;;5070203;28;20036;-68
2022/01/19 03:37:24;;;;;;;1999.90;999.90;;;4.10;99.90;;;;;;5046600;28;20045;-68
2022/01/19 03:39:50;;;;;;;1999.90;999.90;;;4.10;99.90;;;;;;5067014;28;20040;-68
2022/01/19 03:42:16;;;;;;;1999.90;999.90;;;4.10;99.90;;;;;;5065396;28;20045;-68
2022/01/19 03:44:41;;;;;;;1999.90;999.90;;;4.10;99.90;;;;;;5066075;28;20502;-68
2022/01/19 03:47:07;;;;;;;1999.90;999.90;;;4.10;99.90;;;;;;5059851;28;20421;-68
2022/01/19 03:49:34;;;;;;;1999.90;999.90;;;4.10;99.90;;;;;;5063537;28;20041;-68
2022/01/19 03:52:02;;;;;;;1999.90;999.90;;;4.10;99.90;;;;;;5066023;28;20048;-68
2022/01/19 03:54:30;;;;;;;1999.90;999.90;;;4.10;99.90;;;;;;5061599;28;20459;-68
2022/01/19 03:56:56;;;;;;;1999.90;999.90;;;4.10;99.90;;;;;;5070079;28;20044;-68
2022/01/19 03:59:22;;;;;;;1999.90;999.90;;;4.10;99.90;;;;;;5063863;28;20418;-68
2022/01/19 04:01:53;;;;;;;1999.90;999.90;;;4.10;99.90;;;;;;5063799;28;20078;-68
2022/01/19 04:09:19;;;;;;;1999.90;999.90;;;4.10;99.90;;;;;;5067445;28;20061;-68
2022/01/19 04:11:45;;;;;;;1999.90;999.90;;;4.10;99.90;;;;;;5068770;28;20048;-68
2022/01/19 04:14:24;;;;;;;1999.90;999.90;;;4.10;99.90;;;;;;5065157;28;20446;-69
2022/01/19 04:16:52;;;;;;;1999.90;999.90;;;4.10;99.90;;;;;;5065344;28;20462;-69
2022/01/19 04:21:53;;;;;;;1999.90;999.90;;;4.00;99.90;;;;;;5063307;28;20044;-69
2022/01/19 04:24:20;;;;;;;1999.90;999.90;;;4.00;99.90;;;;;;5077711;28;20142;-69
2022/01/19 04:26:56;;;;;;;1999.90;999.90;;;3.90;99.90;;;;;;5069235;28;20155;-69
2022/01/19 04:29:22;;;;;;;1999.90;999.90;;;3.90;99.90;;;;;;5065323;28;20056;-69
2022/01/19 04:31:48;;;;;;;1999.90;999.90;;;3.90;99.90;;;;;;5071070;28;20066;-69
2022/01/19 04:34:15;;;;;;;1999.90;999.90;;;3.90;99.90;;;;;;5066872;28;20481;-69
2022/01/19 05:04:18;;;;;;;1999.90;999.90;;;3.70;99.90;;;;;;5077009;28;20123;-69
2022/01/19 05:06:52;;;;;;;1999.90;999.90;;;3.70;99.90;;;;;;5069632;28;20064;-69
2022/01/19 05:13:25;;;;;;;1999.90;999.90;;;3.70;99.90;;;;;;5062413;28;20417;-69
2022/01/19 05:14:57;;;;;;;1999.90;999.90;;;3.70;99.90;;;;;;5063834;28;20049;-68
2022/01/19 05:17:22;;;;;;;1999.90;999.90;;;3.70;99.90;;;;;;5061066;28;20063;-68
2022/01/19 05:19:48;;;;;;;1999.90;999.90;;;3.70;99.90;;;;;;5066624;28;20090;-69
2022/01/19 05:22:13;;;;;;;1999.90;999.90;;;3.60;99.90;;;;;;5057412;28;20044;-68
2022/01/19 05:24:39;;;;;;;1999.90;999.90;;;3.60;99.90;;;;;;5065045;28;20110;-68
2022/01/19 05:27:05;;;;;;;1999.90;999.90;;;3.60;99.90;;;;;;5066087;28;20007;-68
2022/01/19 05:29:30;;;;;;;1999.90;999.90;;;3.60;99.90;;;;;;5069192;28;20048;-69
2022/01/19 05:31:56;;;;;;;1999.90;999.90;;;3.60;99.90;;;;;;5064640;28;20033;-69
2022/01/19 05:34:21;;;;;;;1999.90;999.90;;;3.50;99.90;;;;;;5063206;28;20593;-69
2022/01/19 05:36:47;;;;;;;1999.90;999.90;;;3.40;99.90;;;;;;5066799;28;20060;-69
2022/01/19 05:39:13;;;;;;;1999.90;999.90;;;3.30;99.90;;;;;;5061457;28;20451;-69
2022/01/19 05:41:38;;;;;;;1999.90;999.90;;;3.30;99.90;;;;;;5068522;28;20052;-68
2022/01/19 05:44:04;;;;;;;1999.90;999.90;;;3.20;99.90;;;;;;5067534;28;20105;-68
2022/01/19 05:46:30;;;;;;;1999.90;999.90;;;3.20;99.90;;;;;;5066265;28;20524;-68
2022/01/19 05:48:56;;;;;;;1999.90;999.90;;;3.30;99.90;;;;;;5066596;28;20097;-69
2022/01/19 05:51:21;;;;;;;1999.90;999.90;;;3.30;99.90;;;;;;5065794;28;20057;-68
2022/01/19 05:53:49;;;;;;;1999.90;999.90;;;3.30;99.90;;;;;;5062684;28;20056;-69
2022/01/19 05:56:14;;;;;;;1999.90;999.90;;;3.40;99.90;;;;;;5062974;28;20048;-69
2022/01/19 05:58:40;;;;;;;1999.90;999.90;;;3.40;99.90;;;;;;5065469;28;20041;-68
2022/01/19 06:01:06;;;;;;;1999.90;999.90;;;3.40;99.90;;;;;;5064381;28;20041;-68
2022/01/19 06:03:31;;;;;;;1999.90;999.90;;;3.50;99.90;;;;;;5067201;28;20136;-69
2022/01/19 06:05:57;;;;;;;1999.90;999.90;;;3.50;99.90;;;;;;5067091;28;20036;-69
2022/01/19 06:10:55;;;;;;;1999.90;999.90;;;3.50;99.90;;;;;;5066130;28;20086;-68
2022/01/19 06:13:22;;;;;;;1999.90;999.90;;;3.50;99.90;;;;;;5061410;28;20049;-69
2022/01/19 06:15:49;;;;;;;1999.90;999.90;;;3.60;99.90;;;;;;5065365;28;20059;-69
2022/01/19 06:18:16;;;;;;;1999.90;999.90;;;3.60;99.90;;;;;;5061859;28;20115;-68
2022/01/19 06:20:42;;;;;;;1999.90;999.90;;;3.60;99.90;;;;;;5066698;28;20040;-69
2022/01/19 06:23:09;;;;;;;1999.90;999.90;;;3.60;99.90;;;;;;5064822;28;20044;-69
2022/01/19 06:25:34;;;;;;;1999.90;999.90;;;3.60;99.90;;;;;;5053908;28;20040;-68
2022/01/19 06:28:02;;;;;;;1999.90;999.90;;;3.70;99.90;;;;;;5066147;28;20082;-69
2022/01/19 06:30:27;;;;;;;1999.90;999.90;;;3.70;99.90;;;;;;5066439;28;20151;-69
2022/01/19 06:32:53;;;;;;;1999.90;999.90;;;3.70;99.90;;;;;;5060421;28;20132;-69
2022/01/19 06:35:19;;;;;;;1999.90;999.90;;;3.70;99.90;;;;;;5061754;28;20556;-69
2022/01/19 06:37:48;;;;;;;1999.90;999.90;;;3.70;99.90;;;;;;5062603;28;20544;-69
2022/01/19 06:40:15;;;;;;;1999.90;999.90;;;3.60;99.90;;;;;;5064230;28;20042;-69
2022/01/19 06:42:42;;;;;;;1999.90;999.90;;;3.60;99.90;;;;;;5067688;28;20056;-69
2022/01/19 06:45:08;;;;;;;1999.90;999.90;;;3.70;99.90;;;;;;5064541;28;20040;-69
2022/01/19 06:47:34;;;;;;;1999.90;999.90;;;3.60;99.90;;;;;;5060049;28;20508;-68
2022/01/19 06:50:00;;;;;;;1999.90;999.90;;;3.60;99.90;;;;;;5065688;28;20036;-68
2022/01/19 06:52:26;;;;;;;1999.90;999.90;;;3.70;99.90;;;;;;5063397;28;20048;-69
2022/01/19 06:54:53;;;;;;;1999.90;999.90;;;3.70;99.90;;;;;;5062624;28;20052;-69
2022/01/19 06:57:18;;;;;;;1999.90;999.90;;;3.60;99.90;;;;;;5063187;28;20120;-69
2022/01/19 06:59:44;;;;;;;1999.90;999.90;;;3.60;99.90;;;;;;5070414;28;20159;-68
2022/01/19 07:02:10;;;;;;;1999.90;999.90;;;3.70;99.90;;;;;;5064468;28;20405;-69
2022/01/19 07:04:36;;;;;;;1999.90;999.90;;;3.70;99.90;;;;;;5057604;28;20123;-69
2022/01/19 07:07:03;;;;;;;1999.90;999.90;;;3.70;99.90;;;;;;5064482;28;20669;-69
2022/01/19 07:09:29;;;;;;;1999.90;999.90;;;3.70;99.90;;;;;;5058602;28;20052;-69
2022/01/19 07:11:55;;;;;;;1999.90;999.90;;;3.70;99.90;;;;;;5042648;28;20044;-68
2022/01/19 07:14:21;;;;;;;1999.90;999.90;;;3.70;99.90;;;;;;5065685;28;20115;-69
2022/01/19 07:16:47;;;;;;;1999.90;999.90;;;3.70;99.90;;;;;;5063317;28;20044;-68
2022/01/19 07:19:13;;;;;;;1999.90;999.90;;;3.60;99.90;;;;;;5064757;28;20098;-68
2022/01/19 07:21:39;;;;;;;1999.90;999.90;;;3.70;99.90;;;;;;5064256;28;20041;-69
2022/01/19 07:24:05;;;;;;;1999.90;999.90;;;3.70;99.90;;;;;;5066955;28;20052;-68
2022/01/19 07:26:31;;;;;;;1999.90;999.90;;;3.60;99.90;;;;;;5063804;28;20040;-68
2022/01/19 07:28:56;;;;;;;1999.90;999.90;;;3.60;99.90;;;;;;5056813;28;20086;-68
2022/01/19 07:31:22;;;;;;;1999.90;999.90;;;3.60;99.90;;;;;;5067968;28;20119;-69
2022/01/19 07:33:48;;;;;;;1999.90;999.90;;;3.60;99.90;;;;;;5059260;28;20068;-69
2022/01/19 07:36:15;;;;;;;1999.90;999.90;;;3.60;99.90;;;;;;5063905;28;20080;-68
2022/01/19 07:38:41;;;;;;;1999.90;999.90;;;3.60;99.90;;;;;;5058089;28;20049;-69
2022/01/19 07:41:07;;;;;;;1999.90;999.90;;;3.60;99.90;;;;;;5068858;28;20052;-69
2022/01/19 07:43:33;;;;;;;1999.90;999.90;;;3.60;99.90;;;;;;5066100;28;20076;-68
2022/01/19 07:45:58;;;;;;;1999.90;999.90;;;3.60;99.90;;;;;;5060836;28;20135;-68
2022/01/19 07:48:24;;;;;;;1999.90;999.90;;;3.60;99.90;;;;;;5064300;28;20440;-69
2022/01/19 07:50:50;;;;;;;1999.90;999.90;;;3.60;99.90;;;;;;5054993;28;20094;-68
2022/01/19 07:53:15;;;;;;;1999.90;999.90;;;3.60;99.90;;;;;;5065207;28;20378;-68
2022/01/19 07:55:42;;;;;;;1999.90;999.90;;;3.60;99.90;;;;;;5062518;28;20049;-68
2022/01/19 07:58:09;;;;;;;1999.90;999.90;;;3.60;99.90;;;;;;5067572;28;20127;-68
2022/01/19 08:00:38;;;;;;;1999.90;999.90;;;3.60;99.90;;;;;;5061000;28;20037;-68
2022/01/19 08:03:04;;;;;;;1999.90;999.90;;;3.60;99.90;;;;;;5060289;28;20053;-69
2022/01/19 08:05:31;;;;;;;1999.90;999.90;;;3.60;99.90;;;;;;5061801;28;20532;-68
2022/01/19 08:07:56;;;;;;;1999.90;999.90;;;3.70;99.90;;;;;;5059402;28;20414;-68
2022/01/19 08:10:23;;;;;;;1999.90;999.90;;;3.60;99.90;;;;;;5064191;28;20052;-68
2022/01/19 08:12:51;;;;;;;1999.90;999.90;;;3.60;99.90;;;;;;5062198;28;20041;-68
2022/01/19 08:15:17;;;;;;;1999.90;999.90;;;3.60;99.90;;;;;;5061327;28;20052;-69
2022/01/19 08:17:44;;;;;;;1999.90;999.90;;;3.60;99.90;;;;;;5063969;28;20048;-69
2022/01/19 08:20:11;;;;;;;1999.90;999.90;;;3.60;99.90;;;;;;5069310;28;20761;-68
2022/01/19 08:22:36;;;;;;;1999.90;999.90;;;3.60;99.90;;;;;;5070752;28;20040;-68
2022/01/19 08:25:03;;;;;;;1999.90;999.90;;;3.60;99.90;;;;;;5069202;28;20388;-68
2022/01/19 08:27:29;;;;;;;1999.90;999.90;;;3.60;99.90;;;;;;5069698;28;20048;-68
2022/01/19 08:29:54;;;;;;;1999.90;999.90;;;3.60;99.90;;;;;;5061189;28;20047;-68
2022/01/19 08:32:20;;;;;;;1999.90;999.90;;;3.60;99.90;;;;;;5067567;28;20119;-68
2022/01/19 08:34:46;;;;;;;1999.90;999.90;;;3.60;99.90;;;;;;5066773;28;20444;-68
2022/01/19 08:37:15;;;;;;;1999.90;999.90;;;3.60;99.90;;;;;;5069119;28;20048;-68
2022/01/19 08:39:43;;;;;;;1999.90;999.90;;;3.60;99.90;;;;;;5070561;28;20132;-68
2022/01/19 08:42:09;;;;;;;;;;;3.60;99.90;;;;;;5067807;28;20483;-69
2022/01/19 08:44:39;;;;;;;1999.90;999.90;;;3.60;99.90;;;;;;5067319;28;19920;-69
2022/01/19 08:47:06;;;;;;;1999.90;999.90;;;3.60;99.90;;;;;;5064710;28;20071;-68
2022/01/19 08:49:32;;;;;;;1999.90;999.90;;;3.60;99.90;;;;;;5069862;28;20126;-68
2022/01/19 08:51:59;;;;;;;1999.90;999.90;;;3.60;99.90;;;;;;5068231;28;20075;-68
2022/01/19 08:54:25;;;;;;;1999.90;999.90;;;3.60;99.90;;;;;;5062457;28;20067;-68
2022/01/19 08:56:51;;;;;;;1999.90;999.90;;;3.60;99.90;;;;;;5068109;28;20048;-68
2022/01/19 08:59:17;;;;;;;1999.90;999.90;;;3.60;99.90;;;;;;5068279;28;20035;-68
2022/01/19 09:01:42;;;;;;;1999.90;999.90;;;3.70;99.90;;;;;;5059249;28;20041;-69
2022/01/19 09:04:08;;;;;;;1999.90;999.90;;;3.70;99.90;;;;;;5060533;28;20562;-68
2022/01/19 09:06:33;;;;;;;1999.90;999.90;;;3.70;99.90;;;;;;5059912;28;20063;-68
2022/01/19 09:08:59;;;;;;;1999.90;999.90;;;3.70;99.90;;;;;;5060366;28;20045;-68
2022/01/19 09:11:25;;;;;;;1999.90;999.90;;;3.70;99.90;;;;;;5061176;28;20482;-68
2022/01/19 09:13:50;;;;;;;109.10;89.80;;;3.80;99.90;;;;;;5065685;28;20517;-68
2022/01/19 09:16:17;;;;;;;278.33;257.88;;;3.80;99.90;;;;;;5059491;28;20048;-68
2022/01/19 09:18:43;;;;;;;1999.90;999.90;;;3.80;99.90;;;;;;5062489;28;20048;-68
2022/01/19 09:21:09;;;;;;;1999.90;999.90;;;3.80;99.90;;;;;;5062949;28;20728;-69
2022/01/19 09:23:37;;;;;;;1969.80;989.70;;;3.90;99.90;;;;;;5069550;28;20044;-69
2022/01/19 09:26:03;;;;;;;1001.90;886.65;;;3.90;99.90;;;;;;5064106;28;20102;-69
2022/01/19 09:28:29;;;;;;;114.68;76.72;;;3.90;99.90;;;;;;5063535;28;20170;-68
2022/01/19 09:30:59;;;;;;;111.15;69.72;;;4.00;99.90;;;;;;5068288;28;20537;-69
2022/01/19 09:33:28;;;;;;;103.85;66.78;;;4.00;99.90;;;;;;5064376;28;20044;-69
2022/01/19 09:38:34;;;;;;;125.82;74.50;;;4.00;99.90;;;;;;5062773;28;20127;-68
2022/01/19 09:41:01;;;;;;;117.63;72.57;;;4.00;99.90;;;;;;5065593;28;20048;-69
2022/01/19 09:43:27;;;;;;;123.47;73.13;;;4.00;99.90;;;;;;5066995;28;20059;-68
2022/01/19 09:45:55;;;;;;;114.60;70.70;;;4.00;99.90;;;;;;5060404;28;20040;-69
2022/01/19 09:48:22;;;;;;;127.47;73.07;;;4.00;99.90;;;;;;5058314;28;20131;-69
2022/01/19 09:50:47;;;;;;;124.15;73.53;;;4.10;99.90;;;;;;5060345;28;20703;-69
2022/01/19 09:53:13;;;;;;;125.97;73.38;;;4.10;99.90;;;;;;5062077;28;20053;-69
2022/01/19 09:55:40;;;;;;;124.05;74.07;;;4.10;99.90;;;;;;5061452;28;20036;-69
2022/01/19 09:58:07;;;;;;;127.75;72.78;;;4.20;99.90;;;;;;5060739;28;20053;-69
2022/01/19 10:00:33;;;;;;;124.10;76.32;;;4.30;99.90;;;;;;5060384;28;20189;-69
2022/01/19 10:03:15;;;;;;;123.03;71.07;;;4.30;99.90;;;;;;5060344;28;20579;-69
2022/01/19 10:05:57;;;;;;;114.40;69.88;;;4.30;99.90;;;;;;5060761;28;20133;-68
2022/01/19 10:08:44;;;;;;;127.78;72.10;;;4.30;99.90;;;;;;5059637;28;20844;-69
2022/01/19 10:16:57;;;;;;;122.85;71.10;;;4.40;99.90;;;;;;5062798;28;20127;-69
2022/01/19 10:17:08;;;;;;;125.05;70.57;;;4.30;99.90;;;;;;5059806;28;20049;-68
2022/01/19 10:19:48;;;;;;;119.38;76.63;;;4.40;99.90;;;;;;5062120;28;20048;-68
2022/01/19 10:22:17;;;;;;;121.25;73.55;;;4.50;99.90;;;;;;5059991;28;20063;-68
2022/01/19 10:25:01;;;;;;;126.22;75.07;;;4.50;99.90;;;;;;5058245;28;20463;-68
2022/01/19 10:27:33;;;;;;;123.13;75.57;;;4.50;99.90;;;;;;5061356;28;20041;-68
2022/01/19 10:30:02;;;;;;;127.25;75.32;;;4.50;99.90;;;;;;5061691;28;20150;-68
2022/01/19 10:32:28;;;;;;;;;;;4.50;99.90;;;;;;5060190;28;20088;-68
2022/01/19 10:34:54;;;;;;;131.38;76.60;;;4.50;99.90;;;;;;5062224;28;20121;-69
2022/01/19 10:37:25;;;;;;;124.18;74.20;;;4.50;99.90;;;;;;5059494;28;20178;-68
2022/01/19 10:39:57;;;;;;;131.23;73.05;;;4.60;99.90;;;;;;5059655;28;20085;-68
2022/01/19 10:42:27;;;;;;;127.25;76.88;;;4.60;99.90;;;;;;5060847;28;20049;-69
2022/01/19 10:44:59;;;;;;;134.52;73.78;;;4.60;99.90;;;;;;5060288;28;20067;-68
2022/01/19 10:47:37;;;;;;;126.53;72.93;;;4.60;99.90;;;;;;5058799;28;20054;-69
2022/01/19 10:50:03;;;;;;;133.02;74.97;;;4.60;99.90;;;;;;5057297;28;20083;-68
2022/01/19 10:52:36;;;;;;;125.93;74.03;;;4.60;99.90;;;;;;5059637;28;20059;-68
2022/01/19 10:55:04;;;;;;;131.55;73.38;;;4.60;99.90;;;;;;5058364;28;20743;-71
2022/01/19 10:57:30;;;;;;;;;;;4.70;99.90;;;;;;5061274;28;20048;-69
2022/01/19 11:00:16;;;;;;;135.13;78.28;;;4.60;99.90;;;;;;5060028;28;20007;-68
2022/01/19 11:02:43;;;;;;;136.00;81.00;;;4.60;99.90;;;;;;5058879;28;20860;-68
2022/01/19 11:05:09;;;;;;;142.63;83.78;;;4.70;99.90;;;;;;5061874;28;20051;-68
2022/01/19 11:07:35;;;;;;;138.90;79.30;;;4.70;99.90;;;;;;5058269;28;20064;-68
2022/01/19 11:10:17;;;;;;;140.15;80.40;;;4.70;99.90;;;;;;5059573;28;20059;-68
2022/01/19 11:12:55;;;;;;;150.85;81.82;;;4.70;99.90;;;;;;5060902;28;20092;-68
2022/01/19 11:15:20;;;;;;;136.85;81.72;;;4.80;99.90;;;;;;5059573;28;20494;-68
2022/01/19 11:17:49;;;;;;;143.32;81.82;;;4.80;99.90;;;;;;5060362;28;20043;-68
2022/01/19 11:20:18;;;;;;;156.75;85.45;;;4.80;99.90;;;;;;5061503;28;20044;-68
2022/01/19 11:23:15;;;;;;;146.70;82.03;;;4.80;99.90;;;;;;5059257;28;20053;-68
2022/01/19 11:26:05;;;;;;;156.57;84.53;;;4.80;99.90;;;;;;5058760;28;20094;-68
2022/01/19 11:28:38;;;;;;;152.30;84.78;;;4.80;99.90;;;;;;5058819;28;20052;-69
2022/01/19 11:31:27;;;;;;;151.43;88.53;;;4.70;99.90;;;;;;5060698;28;20532;-69
2022/01/19 11:33:55;;;;;;;160.95;87.88;;;4.70;99.90;;;;;;5058923;28;20056;-68
2022/01/19 11:36:22;;;;;;;;;;;4.70;99.90;;;;;;5061625;28;20366;-68
2022/01/19 11:39:30;;;;;;;154.35;85.80;;;4.80;99.90;;;;;;5059638;28;19924;-68
2022/01/19 11:41:58;;;;;;;176.73;92.07;;;4.70;99.90;;;;;;5048825;28;20544;-68
2022/01/19 11:44:32;;;;;;;159.73;88.68;;;4.60;99.90;;;;;;5053421;28;20097;-67
2022/01/19 11:47:21;;;;;;;165.82;92.63;;;4.60;99.90;;;;;;5063056;28;20057;-68
2022/01/19 11:49:47;;;;;;;170.77;96.50;;;4.70;99.90;;;;;;5059765;28;20139;-68
2022/01/19 11:52:15;;;;;;;170.45;93.85;;;4.60;99.90;;;;;;5061609;28;20040;-67
2022/01/19 11:54:42;;;;;;;171.88;91.93;;;4.70;99.90;;;;;;5060846;28;20584;-68
2022/01/19 11:57:10;;;;;;;181.00;97.65;;;4.70;99.90;;;;;;5063737;28;20055;-68
2022/01/19 11:59:36;;;;;;;176.32;95.88;;;4.70;99.90;;;;;;5061734;28;20465;-68
2022/01/19 12:02:20;;;;;;;187.95;99.95;;;4.70;99.90;;;;;;5064279;28;20082;-68
2022/01/19 12:04:50;;;;;;;182.38;96.97;;;4.70;99.90;;;;;;5065221;28;20064;-68
2022/01/19 12:07:33;;;;;;;207.52;100.25;;;4.70;99.90;;;;;;5061868;28;20064;-68
2022/01/19 12:09:59;;;;;;;204.10;98.63;;;4.70;99.90;;;;;;5064161;28;20529;-68
2022/01/19 12:12:29;;;;;;;197.60;98.93;;;4.70;99.90;;;;;;5061416;28;20080;-69
2022/01/19 12:14:55;;;;;;;183.68;96.43;;;4.80;99.90;;;;;;5061710;28;20062;-69
2022/01/19 12:17:27;;;;;;;189.50;97.72;;;4.70;99.90;;;;;;5064810;28;20088;-69
2022/01/19 12:19:55;;;;;;;186.27;95.50;;;4.80;99.90;;;;;;5062110;28;20072;-69
2022/01/19 12:22:28;;;;;;;201.30;102.20;;;4.80;99.90;;;;;;5062315;28;20080;-68
2022/01/19 12:25:00;;;;;;;192.98;96.95;;;4.80;99.90;;;;;;5063510;28;20535;-69
2022/01/19 12:27:32;;;;;;;187.10;98.60;;;4.80;99.90;;;;;;5063495;28;20573;-69
2022/01/19 12:30:14;;;;;;;186.60;99.63;;;4.80;99.90;;;;;;5062328;28;20058;-69
2022/01/19 12:32:42;;;;;;;196.00;97.65;;;4.80;99.90;;;;;;5062790;28;20455;-69
2022/01/19 12:35:14;;;;;;;188.13;102.63;;;4.90;99.90;;;;;;5064773;28;20051;-68
2022/01/19 12:37:51;;;;;;;195.98;98.05;;;4.90;99.90;;;;;;5062822;28;20055;-69
2022/01/19 12:40:22;;;;;;;214.60;102.72;;;4.90;99.90;;;;;;5062748;28;20044;-69
2022/01/19 12:42:55;;;;;;;197.88;100.53;;;4.90;99.90;;;;;;5062381;28;20123;-68
2022/01/19 12:45:31;;;;;;;188.80;99.10;;;4.90;99.90;;;;;;5060817;28;20122;-69
2022/01/19 12:47:57;;;;;;;184.73;94.30;;;4.90;99.90;;;;;;5063368;28;20055;-69
2022/01/19 12:50:34;;;;;;;180.77;94.00;;;4.90;99.90;;;;;;5060270;28;20048;-69
2022/01/19 12:53:05;;;;;;;198.38;99.75;;;4.90;99.90;;;;;;5060569;28;20053;-69
2022/01/19 12:55:38;;;;;;;200.13;102.63;;;4.90;99.90;;;;;;5061608;28;20122;-69
2022/01/19 12:58:14;;;;;;;195.35;96.55;;;4.90;99.90;;;;;;5060729;28;20060;-69
2022/01/19 13:00:42;;;;;;;186.68;100.55;;;4.80;99.90;;;;;;5063613;28;20536;-69
2022/01/19 13:03:21;;;;;;;203.55;100.90;;;4.80;99.90;;;;;;5067379;28;20091;-69
2022/01/19 13:05:58;;;;;;;182.95;95.97;;;4.80;99.90;;;;;;5067173;28;20056;-69
2022/01/19 13:08:30;;;;;;;196.18;97.35;;;4.80;99.90;;;;;;5066769;28;20521;-69
2022/01/19 13:11:05;;;;;;;184.93;95.60;;;4.80;99.90;;;;;;5065959;28;20057;-69
2022/01/19 13:13:31;;;;;;;196.68;100.03;;;4.80;99.90;;;;;;5067976;28;20071;-69
2022/01/19 13:15:59;;;;;;;209.50;102.45;;;4.90;99.90;;;;;;5065183;28;20048;-69
2022/01/19 13:18:42;;;;;;;181.45;91.50;;;4.90;99.90;;;;;;5066503;28;20102;-69
2022/01/19 13:21:20;;;;;;;184.95;97.00;;;4.90;99.90;;;;;;5063647;28;20124;-68
2022/01/19 13:23:55;;;;;;;205.75;104.65;;;4.90;99.90;;;;;;5066002;28;20399;-69
2022/01/19 13:26:21;;;;;;;193.95;99.25;;;4.80;99.90;;;;;;5064905;28;20048;-69
2022/01/19 13:28:47;;;;;;;199.93;99.43;;;4.80;99.90;;;;;;5064658;28;20047;-69
2022/01/19 13:31:19;;;;;;;186.05;97.32;;;4.90;99.90;;;;;;5063297;28;20037;-69
2022/01/19 13:33:56;;;;;;;190.95;97.55;;;4.90;99.90;;;;;;5067195;28;20113;-69
2022/01/19 13:36:30;;;;;;;170.13;92.53;;;5.00;99.90;;;;;;5068081;28;20051;-69
2022/01/19 13:38:56;;;;;;;186.70;95.53;;;5.00;99.90;;;;;;5066418;28;20498;-70
2022/01/19 13:41:23;;;;;;;177.40;93.32;;;5.00;99.90;;;;;;5065778;28;20040;-70
2022/01/19 13:43:49;;;;;;;186.63;91.78;;;5.00;99.90;;;;;;5067619;28;20036;-69
2022/01/19 13:46:29;;;;;;;190.50;97.60;;;5.00;99.90;;;;;;5062531;28;20067;-69
2022/01/19 13:48:59;;;;;;;188.77;94.45;;;5.10;99.90;;;;;;5069572;28;20049;-69
2022/01/19 13:51:26;;;;;;;172.70;94.13;;;5.10;99.90;;;;;;5066375;28;20102;-69
2022/01/19 13:53:54;;;;;;;172.77;90.85;;;5.00;99.90;;;;;;5066259;28;20115;-69
2022/01/19 13:56:32;;;;;;;175.40;91.10;;;5.10;99.90;;;;;;5062952;28;20505;-69
2022/01/19 13:59:07;;;;;;;174.30;87.43;;;5.10;99.90;;;;;;5065601;28;20055;-69